UAL22 KCOS-KDEN
Flight info
| Callsign | UAL22 |
|---|---|
| Flight time | 0h 17m |
| Altitude | 16000 |
| Route | ADANE V389 LUFSE/N0351F150 JEFEL/N0347F140 |
| Aircraft | B738/M-SDE2E3FGHIRWXY/LB1 |
Departure
| Time | 2026-05-06 17:55 |
|---|---|
| Airport | City of Colorado Springs Municipal Airport (KCOS) |
Arrival
| Time | 2026-05-06 18:12 |
|---|---|
| Airport | Denver International Airport (KDEN) |
| Time | Latitude | Longitude | Altitude | Speed | Heading |
|---|---|---|---|---|---|
| 2026-05-06 16:47 | 38.80013 | -104.70077 | 6117 ft | 0 kts | 185° |
| 2026-05-06 16:48 | 38.80015 | -104.70076 | 6117 ft | 1 kts | 184° |
| 2026-05-06 16:48 | 38.80028 | -104.70078 | 6117 ft | 2 kts | 159° |
| 2026-05-06 16:48 | 38.80041 | -104.70084 | 6117 ft | 1 kts | 183° |
| 2026-05-06 16:49 | 38.80053 | -104.70079 | 6117 ft | 1 kts | 219° |
| 2026-05-06 16:49 | 38.80060 | -104.70067 | 6118 ft | 2 kts | 251° |
| 2026-05-06 16:49 | 38.80063 | -104.70049 | 6118 ft | 1 kts | 252° |
| 2026-05-06 16:49 | 38.80067 | -104.70033 | 6119 ft | 0 kts | 266° |
| 2026-05-06 16:50 | 38.80067 | -104.70022 | 6119 ft | 0 kts | 270° |
| 2026-05-06 16:54 | 38.80067 | -104.70023 | 6119 ft | 0 kts | 270° |
| 2026-05-06 16:54 | 38.80068 | -104.70137 | 6115 ft | 24 kts | 272° |
| 2026-05-06 16:55 | 38.80049 | -104.70276 | 6109 ft | 0 kts | 252° |
| 2026-05-06 16:55 | 38.80038 | -104.70284 | 6109 ft | 3 kts | 204° |
| 2026-05-06 16:55 | 38.80018 | -104.70319 | 6108 ft | 6 kts | 270° |
| 2026-05-06 16:56 | 38.80018 | -104.70321 | 6108 ft | 0 kts | 270° |
| 2026-05-06 17:50 | 38.80020 | -104.70383 | 6105 ft | 14 kts | 283° |
| 2026-05-06 17:51 | 38.80101 | -104.70436 | 6103 ft | 13 kts | 0° |
| 2026-05-06 17:51 | 38.80199 | -104.70433 | 6104 ft | 17 kts | 1° |
| 2026-05-06 17:51 | 38.80282 | -104.70503 | 6103 ft | 16 kts | 271° |
| 2026-05-06 17:51 | 38.80279 | -104.70660 | 6099 ft | 19 kts | 270° |
| 2026-05-06 17:52 | 38.80283 | -104.70842 | 6093 ft | 20 kts | 273° |
| 2026-05-06 17:52 | 38.80285 | -104.71021 | 6092 ft | 19 kts | 270° |
| 2026-05-06 17:52 | 38.80284 | -104.71208 | 6088 ft | 23 kts | 270° |
| 2026-05-06 17:52 | 38.80218 | -104.71346 | 6083 ft | 21 kts | 182° |
| 2026-05-06 17:53 | 38.80060 | -104.71345 | 6076 ft | 23 kts | 180° |
| 2026-05-06 17:53 | 38.79894 | -104.71347 | 6070 ft | 24 kts | 179° |
| 2026-05-06 17:53 | 38.79802 | -104.71422 | 6066 ft | 12 kts | 302° |
| 2026-05-06 17:53 | 38.79878 | -104.71497 | 6066 ft | 19 kts | 329° |
| 2026-05-06 17:54 | 38.80106 | -104.71599 | 6075 ft | 62 kts | 359° |
| 2026-05-06 17:54 | 38.80738 | -104.71588 | 6098 ft | 118 kts | 0° |
| 2026-05-06 17:54 | 38.81737 | -104.71592 | 6141 ft | 164 kts | 360° |
| 2026-05-06 17:54 | 38.82919 | -104.71608 | 6559 ft | 173 kts | 359° |
| 2026-05-06 17:55 | 38.84109 | -104.71641 | 7230 ft | 174 kts | 359° |
| 2026-05-06 17:55 | 38.85283 | -104.71589 | 7849 ft | 174 kts | 16° |
| 2026-05-06 17:55 | 38.86279 | -104.70629 | 8167 ft | 190 kts | 57° |
| 2026-05-06 17:55 | 38.86947 | -104.69151 | 8620 ft | 200 kts | 55° |
| 2026-05-06 17:56 | 38.87932 | -104.67748 | 9045 ft | 216 kts | 39° |
| 2026-05-06 17:56 | 38.89191 | -104.66580 | 9456 ft | 234 kts | 33° |
| 2026-05-06 17:56 | 38.90595 | -104.65404 | 10005 ft | 246 kts | 33° |
| 2026-05-06 17:56 | 38.92067 | -104.64161 | 10482 ft | 261 kts | 33° |
| 2026-05-06 17:57 | 38.93603 | -104.62785 | 10947 ft | 276 kts | 40° |
| 2026-05-06 17:57 | 38.94830 | -104.60787 | 11373 ft | 293 kts | 62° |
| 2026-05-06 17:57 | 38.95562 | -104.58268 | 11847 ft | 309 kts | 72° |
| 2026-05-06 17:57 | 38.96144 | -104.55559 | 12334 ft | 322 kts | 73° |
| 2026-05-06 17:58 | 38.96726 | -104.52747 | 12751 ft | 335 kts | 74° |
| 2026-05-06 17:58 | 38.97332 | -104.49802 | 13116 ft | 347 kts | 73° |
| 2026-05-06 17:58 | 38.97960 | -104.46748 | 13142 ft | 351 kts | 74° |
| 2026-05-06 17:58 | 38.98576 | -104.43746 | 13142 ft | 346 kts | 73° |
| 2026-05-06 17:59 | 38.99201 | -104.40721 | 12967 ft | 347 kts | 73° |
| 2026-05-06 17:59 | 39.00083 | -104.37896 | 12932 ft | 340 kts | 55° |
| 2026-05-06 17:59 | 39.01746 | -104.35768 | 12932 ft | 340 kts | 30° |
| 2026-05-06 17:59 | 39.03931 | -104.34669 | 12921 ft | 337 kts | 13° |
| 2026-05-06 18:00 | 39.06237 | -104.34247 | 12896 ft | 336 kts | 360° |
| 2026-05-06 18:00 | 39.08547 | -104.34605 | 12895 ft | 335 kts | 345° |
| 2026-05-06 18:00 | 39.10661 | -104.35867 | 12909 ft | 335 kts | 324° |
| 2026-05-06 18:00 | 39.12510 | -104.37656 | 12901 ft | 337 kts | 329° |
| 2026-05-06 18:01 | 39.14701 | -104.38711 | 12904 ft | 336 kts | 350° |
| 2026-05-06 18:01 | 39.17046 | -104.38886 | 12897 ft | 338 kts | 1° |
| 2026-05-06 18:01 | 39.19392 | -104.38711 | 12892 ft | 339 kts | 7° |
| 2026-05-06 18:01 | 39.21720 | -104.38161 | 12901 ft | 339 kts | 6° |
| 2026-05-06 18:02 | 39.24068 | -104.38378 | 12904 ft | 338 kts | 342° |
| 2026-05-06 18:02 | 39.26074 | -104.39839 | 12895 ft | 337 kts | 317° |
| 2026-05-06 18:02 | 39.27493 | -104.42226 | 12903 ft | 336 kts | 301° |
| 2026-05-06 18:02 | 39.28625 | -104.44881 | 12892 ft | 335 kts | 300° |
| 2026-05-06 18:03 | 39.30065 | -104.47201 | 12904 ft | 337 kts | 321° |
| 2026-05-06 18:03 | 39.32097 | -104.48737 | 12921 ft | 337 kts | 335° |
| 2026-05-06 18:03 | 39.34246 | -104.49938 | 12922 ft | 331 kts | 337° |
| 2026-05-06 18:03 | 39.36303 | -104.51045 | 12916 ft | 314 kts | 336° |
| 2026-05-06 18:04 | 39.38288 | -104.52119 | 12533 ft | 311 kts | 337° |
| 2026-05-06 18:04 | 39.40281 | -104.53200 | 12029 ft | 311 kts | 337° |
| 2026-05-06 18:04 | 39.42284 | -104.54294 | 11674 ft | 306 kts | 337° |
| 2026-05-06 18:04 | 39.44196 | -104.55345 | 11428 ft | 298 kts | 337° |
| 2026-05-06 18:05 | 39.46085 | -104.56378 | 11201 ft | 291 kts | 337° |
| 2026-05-06 18:05 | 39.47931 | -104.57393 | 10966 ft | 285 kts | 338° |
| 2026-05-06 18:05 | 39.49759 | -104.58391 | 10736 ft | 279 kts | 338° |
| 2026-05-06 18:05 | 39.51514 | -104.59359 | 10509 ft | 274 kts | 337° |
| 2026-05-06 18:06 | 39.53269 | -104.60341 | 10283 ft | 271 kts | 338° |
| 2026-05-06 18:06 | 39.55010 | -104.61302 | 10052 ft | 265 kts | 338° |
| 2026-05-06 18:06 | 39.56694 | -104.62219 | 9843 ft | 258 kts | 338° |
| 2026-05-06 18:06 | 39.58329 | -104.63110 | 9619 ft | 251 kts | 338° |
| 2026-05-06 18:07 | 39.59934 | -104.63984 | 9389 ft | 245 kts | 339° |
| 2026-05-06 18:07 | 39.61492 | -104.64835 | 9160 ft | 239 kts | 338° |
| 2026-05-06 18:07 | 39.62985 | -104.65679 | 8970 ft | 232 kts | 338° |
| 2026-05-06 18:07 | 39.64490 | -104.66267 | 8934 ft | 215 kts | 354° |
| 2026-05-06 18:08 | 39.65959 | -104.66331 | 8812 ft | 210 kts | 3° |
| 2026-05-06 18:08 | 39.67386 | -104.66241 | 8549 ft | 201 kts | 3° |
| 2026-05-06 18:08 | 39.68750 | -104.66209 | 8254 ft | 190 kts | 1° |
| 2026-05-06 18:08 | 39.70022 | -104.66215 | 8058 ft | 171 kts | 1° |
| 2026-05-06 18:09 | 39.71205 | -104.66205 | 7754 ft | 165 kts | 2° |
| 2026-05-06 18:09 | 39.72308 | -104.66183 | 7526 ft | 156 kts | 2° |
| 2026-05-06 18:09 | 39.73404 | -104.66168 | 7384 ft | 156 kts | 2° |
| 2026-05-06 18:09 | 39.74500 | -104.66157 | 7102 ft | 156 kts | 2° |
| 2026-05-06 18:10 | 39.75572 | -104.66145 | 6898 ft | 153 kts | 2° |
| 2026-05-06 18:10 | 39.76659 | -104.66128 | 6678 ft | 153 kts | 2° |
| 2026-05-06 18:10 | 39.77721 | -104.66119 | 6479 ft | 151 kts | 2° |
| 2026-05-06 18:10 | 39.78766 | -104.66105 | 6270 ft | 151 kts | 3° |
| 2026-05-06 18:11 | 39.79831 | -104.66090 | 6059 ft | 152 kts | 2° |
| 2026-05-06 18:11 | 39.80897 | -104.66082 | 5853 ft | 151 kts | 2° |
| 2026-05-06 18:11 | 39.81953 | -104.66063 | 5649 ft | 151 kts | 3° |
| 2026-05-06 18:11 | 39.82993 | -104.66057 | 5447 ft | 146 kts | 2° |
| 2026-05-06 18:12 | 39.83955 | -104.66032 | 5415 ft | 117 kts | 3° |
| 2026-05-06 18:12 | 39.84494 | -104.66035 | 5398 ft | 40 kts | 356° |
| 2026-05-06 18:12 | 39.84732 | -104.66054 | 5396 ft | 29 kts | 341° |
| 2026-05-06 18:12 | 39.84907 | -104.66045 | 5395 ft | 22 kts | 4° |
| 2026-05-06 18:13 | 39.85055 | -104.66039 | 5393 ft | 18 kts | 4° |
| 2026-05-06 18:13 | 39.85125 | -104.66035 | 5393 ft | 8 kts | 2° |
| 2026-05-06 18:13 | 39.85147 | -104.66032 | 5393 ft | 0 kts | 4° |
| 2026-05-06 18:13 | 39.85156 | -104.66034 | 5392 ft | 6 kts | 344° |
| 2026-05-06 18:14 | 39.85194 | -104.66076 | 5392 ft | 8 kts | 320° |
| 2026-05-06 18:14 | 39.85259 | -104.66137 | 5392 ft | 11 kts | 340° |
| 2026-05-06 18:14 | 39.85331 | -104.66179 | 5391 ft | 11 kts | 334° |
| 2026-05-06 18:14 | 39.85401 | -104.66222 | 5390 ft | 10 kts | 335° |
| 2026-05-06 18:15 | 39.85488 | -104.66242 | 5390 ft | 15 kts | 359° |
| 2026-05-06 18:15 | 39.85578 | -104.66254 | 5389 ft | 11 kts | 317° |
| 2026-05-06 18:15 | 39.85585 | -104.66362 | 5385 ft | 13 kts | 268° |
| 2026-05-06 18:15 | 39.85585 | -104.66547 | 5379 ft | 27 kts | 271° |
| 2026-05-06 18:16 | 39.85630 | -104.66827 | 5378 ft | 32 kts | 298° |
| 2026-05-06 18:16 | 39.85723 | -104.66955 | 5378 ft | 9 kts | 0° |
| 2026-05-06 18:16 | 39.85787 | -104.66952 | 5378 ft | 8 kts | 360° |
| 2026-05-06 18:16 | 39.85803 | -104.66952 | 5378 ft | 0 kts | 0° |